sensor_id;sensor_type;location;lat;lon;timestamp;P1;durP1;ratioP1;P2;durP2;ratioP2
4106;SDS011;21906;50.812;7.132;2023-11-19T00:00:17;2.47;;;1.10;;
4106;SDS011;21906;50.812;7.132;2023-11-19T00:02:42;1.40;;;1.10;;
4106;SDS011;21906;50.812;7.132;2023-11-19T00:05:08;1.10;;;1.00;;
4106;SDS011;21906;50.812;7.132;2023-11-19T00:07:36;1.13;;;1.03;;
4106;SDS011;21906;50.812;7.132;2023-11-19T00:10:07;1.10;;;0.90;;
4106;SDS011;21906;50.812;7.132;2023-11-19T00:12:35;1.37;;;1.20;;
4106;SDS011;21906;50.812;7.132;2023-11-19T00:15:01;2.63;;;1.00;;
4106;SDS011;21906;50.812;7.132;2023-11-19T00:17:27;1.30;;;1.20;;
4106;SDS011;21906;50.812;7.132;2023-11-19T00:19:53;1.70;;;1.10;;
4106;SDS011;21906;50.812;7.132;2023-11-19T00:22:18;1.30;;;1.20;;
4106;SDS011;21906;50.812;7.132;2023-11-19T00:24:46;1.63;;;1.53;;
4106;SDS011;21906;50.812;7.132;2023-11-19T00:27:12;2.03;;;1.80;;
4106;SDS011;21906;50.812;7.132;2023-11-19T00:29:37;2.40;;;2.30;;
4106;SDS011;21906;50.812;7.132;2023-11-19T00:32:03;2.80;;;2.60;;
4106;SDS011;21906;50.812;7.132;2023-11-19T00:34:30;1.80;;;1.70;;
4106;SDS011;21906;50.812;7.132;2023-11-19T00:36:56;1.60;;;1.50;;
4106;SDS011;21906;50.812;7.132;2023-11-19T00:39:22;1.90;;;1.80;;
4106;SDS011;21906;50.812;7.132;2023-11-19T00:41:47;2.17;;;1.90;;
4106;SDS011;21906;50.812;7.132;2023-11-19T00:44:13;1.67;;;1.57;;
4106;SDS011;21906;50.812;7.132;2023-11-19T00:46:39;2.10;;;2.00;;
4106;SDS011;21906;50.812;7.132;2023-11-19T00:49:05;2.30;;;2.20;;
4106;SDS011;21906;50.812;7.132;2023-11-19T00:51:30;2.80;;;2.70;;
4106;SDS011;21906;50.812;7.132;2023-11-19T00:53:56;3.97;;;3.70;;
4106;SDS011;21906;50.812;7.132;2023-11-19T00:56:23;3.10;;;2.90;;
4106;SDS011;21906;50.812;7.132;2023-11-19T00:58:49;1.90;;;1.80;;
4106;SDS011;21906;50.812;7.132;2023-11-19T01:01:14;3.73;;;2.20;;
4106;SDS011;21906;50.812;7.132;2023-11-19T01:03:40;3.60;;;3.40;;
4106;SDS011;21906;50.812;7.132;2023-11-19T01:06:06;2.87;;;2.67;;
4106;SDS011;21906;50.812;7.132;2023-11-19T01:08:33;1.53;;;1.43;;
4106;SDS011;21906;50.812;7.132;2023-11-19T01:11:00;1.10;;;1.00;;
4106;SDS011;21906;50.812;7.132;2023-11-19T01:13:27;1.23;;;1.10;;
4106;SDS011;21906;50.812;7.132;2023-11-19T01:15:52;2.00;;;1.33;;
4106;SDS011;21906;50.812;7.132;2023-11-19T01:18:18;1.43;;;1.27;;
4106;SDS011;21906;50.812;7.132;2023-11-19T01:20:44;1.57;;;1.20;;
4106;SDS011;21906;50.812;7.132;2023-11-19T01:23:10;1.20;;;1.10;;
4106;SDS011;21906;50.812;7.132;2023-11-19T01:25:35;1.00;;;0.90;;
4106;SDS011;21906;50.812;7.132;2023-11-19T01:28:03;1.20;;;0.80;;
4106;SDS011;21906;50.812;7.132;2023-11-19T01:30:29;1.10;;;0.90;;
4106;SDS011;21906;50.812;7.132;2023-11-19T01:32:55;1.03;;;0.90;;
4106;SDS011;21906;50.812;7.132;2023-11-19T01:35:21;1.77;;;1.00;;
4106;SDS011;21906;50.812;7.132;2023-11-19T01:37:48;1.10;;;0.90;;
4106;SDS011;21906;50.812;7.132;2023-11-19T01:40:19;1.47;;;1.37;;
4106;SDS011;21906;50.812;7.132;2023-11-19T01:42:45;2.07;;;1.87;;
4106;SDS011;21906;50.812;7.132;2023-11-19T01:45:11;1.50;;;1.40;;
4106;SDS011;21906;50.812;7.132;2023-11-19T01:47:55;2.93;;;1.80;;
4106;SDS011;21906;50.812;7.132;2023-11-19T01:50:23;1.93;;;1.73;;
4106;SDS011;21906;50.812;7.132;2023-11-19T01:52:50;3.50;;;1.83;;
4106;SDS011;21906;50.812;7.132;2023-11-19T01:55:22;2.10;;;1.60;;
4106;SDS011;21906;50.812;7.132;2023-11-19T01:57:48;1.30;;;1.00;;
4106;SDS011;21906;50.812;7.132;2023-11-19T02:00:16;0.90;;;0.80;;
4106;SDS011;21906;50.812;7.132;2023-11-19T02:02:44;1.63;;;1.00;;
4106;SDS011;21906;50.812;7.132;2023-11-19T02:05:13;1.10;;;0.90;;
4106;SDS011;21906;50.812;7.132;2023-11-19T02:07:40;1.70;;;0.90;;
4106;SDS011;21906;50.812;7.132;2023-11-19T02:10:06;1.20;;;1.00;;
4106;SDS011;21906;50.812;7.132;2023-11-19T02:12:37;1.07;;;0.80;;
4106;SDS011;21906;50.812;7.132;2023-11-19T02:15:07;1.07;;;0.97;;
4106;SDS011;21906;50.812;7.132;2023-11-19T02:17:34;1.37;;;1.10;;
4106;SDS011;21906;50.812;7.132;2023-11-19T02:20:02;0.90;;;0.70;;
4106;SDS011;21906;50.812;7.132;2023-11-19T02:22:31;1.23;;;0.97;;
4106;SDS011;21906;50.812;7.132;2023-11-19T02:24:59;1.00;;;0.90;;
4106;SDS011;21906;50.812;7.132;2023-11-19T02:30:20;2.60;;;0.80;;
4106;SDS011;21906;50.812;7.132;2023-11-19T02:32:51;2.03;;;0.97;;
4106;SDS011;21906;50.812;7.132;2023-11-19T02:35:18;1.00;;;0.90;;
4106;SDS011;21906;50.812;7.132;2023-11-19T02:37:43;0.93;;;0.80;;
4106;SDS011;21906;50.812;7.132;2023-11-19T02:45:23;1.00;;;0.90;;
4106;SDS011;21906;50.812;7.132;2023-11-19T02:47:50;1.00;;;0.90;;
4106;SDS011;21906;50.812;7.132;2023-11-19T02:50:16;1.00;;;0.90;;
4106;SDS011;21906;50.812;7.132;2023-11-19T02:52:50;1.70;;;0.83;;
4106;SDS011;21906;50.812;7.132;2023-11-19T02:55:18;2.50;;;1.00;;
4106;SDS011;21906;50.812;7.132;2023-11-19T02:57:44;1.30;;;1.10;;
4106;SDS011;21906;50.812;7.132;2023-11-19T03:00:17;2.80;;;0.87;;
4106;SDS011;21906;50.812;7.132;2023-11-19T03:02:44;0.90;;;0.80;;
4106;SDS011;21906;50.812;7.132;2023-11-19T03:05:18;1.40;;;1.13;;
4106;SDS011;21906;50.812;7.132;2023-11-19T03:07:45;0.90;;;0.80;;
4106;SDS011;21906;50.812;7.132;2023-11-19T03:10:11;0.80;;;0.77;;
4106;SDS011;21906;50.812;7.132;2023-11-19T03:12:39;0.90;;;0.80;;
4106;SDS011;21906;50.812;7.132;2023-11-19T03:15:05;1.10;;;1.00;;
4106;SDS011;21906;50.812;7.132;2023-11-19T03:17:32;1.00;;;0.87;;
4106;SDS011;21906;50.812;7.132;2023-11-19T03:19:59;2.10;;;0.87;;
4106;SDS011;21906;50.812;7.132;2023-11-19T03:22:26;1.20;;;1.00;;
4106;SDS011;21906;50.812;7.132;2023-11-19T03:24:51;0.80;;;0.70;;
4106;SDS011;21906;50.812;7.132;2023-11-19T03:27:17;2.10;;;1.03;;
4106;SDS011;21906;50.812;7.132;2023-11-19T03:29:42;1.17;;;1.07;;
4106;SDS011;21906;50.812;7.132;2023-11-19T03:32:08;1.10;;;1.00;;
4106;SDS011;21906;50.812;7.132;2023-11-19T03:34:34;1.47;;;0.80;;
4106;SDS011;21906;50.812;7.132;2023-11-19T03:36:59;1.10;;;1.00;;
4106;SDS011;21906;50.812;7.132;2023-11-19T03:39:25;1.00;;;0.80;;
4106;SDS011;21906;50.812;7.132;2023-11-19T03:41:52;1.20;;;0.90;;
4106;SDS011;21906;50.812;7.132;2023-11-19T03:44:17;1.00;;;0.90;;
4106;SDS011;21906;50.812;7.132;2023-11-19T03:46:44;1.03;;;0.83;;
4106;SDS011;21906;50.812;7.132;2023-11-19T03:49:09;0.93;;;0.83;;
4106;SDS011;21906;50.812;7.132;2023-11-19T03:51:35;1.00;;;0.90;;
4106;SDS011;21906;50.812;7.132;2023-11-19T03:54:01;1.00;;;0.90;;
4106;SDS011;21906;50.812;7.132;2023-11-19T03:56:26;3.30;;;1.00;;
4106;SDS011;21906;50.812;7.132;2023-11-19T03:58:52;1.40;;;0.90;;
4106;SDS011;21906;50.812;7.132;2023-11-19T04:01:18;0.90;;;0.80;;
4106;SDS011;21906;50.812;7.132;2023-11-19T04:03:44;0.97;;;0.87;;
4106;SDS011;21906;50.812;7.132;2023-11-19T04:06:09;1.20;;;1.00;;
4106;SDS011;21906;50.812;7.132;2023-11-19T04:08:35;1.27;;;1.10;;
4106;SDS011;21906;50.812;7.132;2023-11-19T04:11:02;1.30;;;1.00;;
4106;SDS011;21906;50.812;7.132;2023-11-19T04:13:29;3.20;;;0.93;;
4106;SDS011;21906;50.812;7.132;2023-11-19T04:15:54;1.20;;;1.10;;
4106;SDS011;21906;50.812;7.132;2023-11-19T04:18:20;1.07;;;0.90;;
4106;SDS011;21906;50.812;7.132;2023-11-19T04:20:45;1.30;;;1.20;;
4106;SDS011;21906;50.812;7.132;2023-11-19T04:23:11;2.70;;;1.10;;
4106;SDS011;21906;50.812;7.132;2023-11-19T04:25:36;2.23;;;1.00;;
4106;SDS011;21906;50.812;7.132;2023-11-19T04:28:02;1.30;;;1.13;;
4106;SDS011;21906;50.812;7.132;2023-11-19T04:30:28;3.80;;;1.13;;
4106;SDS011;21906;50.812;7.132;2023-11-19T04:32:54;3.60;;;1.90;;
4106;SDS011;21906;50.812;7.132;2023-11-19T04:35:19;2.67;;;1.50;;
4106;SDS011;21906;50.812;7.132;2023-11-19T04:37:46;4.43;;;1.90;;
4106;SDS011;21906;50.812;7.132;2023-11-19T04:40:12;2.20;;;1.37;;
4106;SDS011;21906;50.812;7.132;2023-11-19T04:42:38;3.30;;;1.60;;
4106;SDS011;21906;50.812;7.132;2023-11-19T04:45:06;2.20;;;1.60;;
4106;SDS011;21906;50.812;7.132;2023-11-19T04:47:35;6.40;;;1.70;;
4106;SDS011;21906;50.812;7.132;2023-11-19T04:50:04;5.40;;;2.03;;
4106;SDS011;21906;50.812;7.132;2023-11-19T04:52:30;5.93;;;2.30;;
4106;SDS011;21906;50.812;7.132;2023-11-19T04:54:55;2.37;;;1.83;;
4106;SDS011;21906;50.812;7.132;2023-11-19T04:57:21;5.47;;;2.00;;
4106;SDS011;21906;50.812;7.132;2023-11-19T04:59:46;6.97;;;2.13;;
4106;SDS011;21906;50.812;7.132;2023-11-19T05:02:12;3.33;;;1.97;;
4106;SDS011;21906;50.812;7.132;2023-11-19T05:04:42;6.70;;;2.27;;
4106;SDS011;21906;50.812;7.132;2023-11-19T05:07:09;5.57;;;2.57;;
4106;SDS011;21906;50.812;7.132;2023-11-19T05:09:34;3.07;;;2.17;;
4106;SDS011;21906;50.812;7.132;2023-11-19T05:12:00;4.20;;;1.93;;
4106;SDS011;21906;50.812;7.132;2023-11-19T05:14:27;6.27;;;2.20;;
4106;SDS011;21906;50.812;7.132;2023-11-19T05:16:53;5.10;;;2.10;;
4106;SDS011;21906;50.812;7.132;2023-11-19T05:19:18;5.50;;;2.47;;
4106;SDS011;21906;50.812;7.132;2023-11-19T05:21:44;7.30;;;2.30;;
4106;SDS011;21906;50.812;7.132;2023-11-19T05:24:10;3.70;;;2.10;;
4106;SDS011;21906;50.812;7.132;2023-11-19T05:26:39;6.70;;;2.33;;
4106;SDS011;21906;50.812;7.132;2023-11-19T05:29:05;5.10;;;2.40;;
4106;SDS011;21906;50.812;7.132;2023-11-19T05:31:31;4.83;;;2.30;;
4106;SDS011;21906;50.812;7.132;2023-11-19T05:33:56;7.17;;;2.60;;
4106;SDS011;21906;50.812;7.132;2023-11-19T05:36:22;5.43;;;1.97;;
4106;SDS011;21906;50.812;7.132;2023-11-19T05:38:47;9.93;;;2.70;;
4106;SDS011;21906;50.812;7.132;2023-11-19T05:41:13;5.33;;;2.50;;
4106;SDS011;21906;50.812;7.132;2023-11-19T05:43:39;12.60;;;2.97;;
4106;SDS011;21906;50.812;7.132;2023-11-19T05:46:05;3.50;;;2.20;;
4106;SDS011;21906;50.812;7.132;2023-11-19T05:48:31;7.40;;;2.33;;
4106;SDS011;21906;50.812;7.132;2023-11-19T05:50:58;13.30;;;2.90;;
4106;SDS011;21906;50.812;7.132;2023-11-19T05:53:23;5.27;;;2.47;;
4106;SDS011;21906;50.812;7.132;2023-11-19T05:55:49;5.50;;;3.00;;
4106;SDS011;21906;50.812;7.132;2023-11-19T05:58:24;6.67;;;2.37;;
4106;SDS011;21906;50.812;7.132;2023-11-19T06:00:57;9.30;;;2.27;;
4106;SDS011;21906;50.812;7.132;2023-11-19T06:03:25;10.43;;;2.57;;
4106;SDS011;21906;50.812;7.132;2023-11-19T06:05:51;8.57;;;2.27;;
4106;SDS011;21906;50.812;7.132;2023-11-19T06:08:17;7.40;;;2.47;;
4106;SDS011;21906;50.812;7.132;2023-11-19T06:10:45;3.67;;;2.40;;
4106;SDS011;21906;50.812;7.132;2023-11-19T06:13:15;9.33;;;2.17;;
4106;SDS011;21906;50.812;7.132;2023-11-19T06:15:41;9.70;;;2.40;;
4106;SDS011;21906;50.812;7.132;2023-11-19T06:18:07;5.47;;;2.43;;
4106;SDS011;21906;50.812;7.132;2023-11-19T06:20:33;8.40;;;2.50;;
4106;SDS011;21906;50.812;7.132;2023-11-19T06:22:59;10.53;;;2.40;;
4106;SDS011;21906;50.812;7.132;2023-11-19T06:25:26;7.30;;;2.57;;
4106;SDS011;21906;50.812;7.132;2023-11-19T06:27:52;6.80;;;2.00;;
4106;SDS011;21906;50.812;7.132;2023-11-19T06:30:18;6.13;;;2.70;;
4106;SDS011;21906;50.812;7.132;2023-11-19T06:32:44;13.80;;;2.77;;
4106;SDS011;21906;50.812;7.132;2023-11-19T06:35:09;4.43;;;2.70;;
4106;SDS011;21906;50.812;7.132;2023-11-19T06:37:35;5.00;;;2.13;;
4106;SDS011;21906;50.812;7.132;2023-11-19T06:40:03;6.73;;;2.33;;
4106;SDS011;21906;50.812;7.132;2023-11-19T06:42:30;10.30;;;2.73;;
4106;SDS011;21906;50.812;7.132;2023-11-19T06:44:56;5.60;;;2.53;;
4106;SDS011;21906;50.812;7.132;2023-11-19T06:47:22;9.57;;;3.00;;
4106;SDS011;21906;50.812;7.132;2023-11-19T06:49:54;14.27;;;2.90;;
4106;SDS011;21906;50.812;7.132;2023-11-19T06:52:20;10.83;;;3.00;;
4106;SDS011;21906;50.812;7.132;2023-11-19T06:54:46;10.63;;;2.73;;
4106;SDS011;21906;50.812;7.132;2023-11-19T06:57:12;8.57;;;3.00;;
4106;SDS011;21906;50.812;7.132;2023-11-19T06:59:38;5.93;;;2.80;;
4106;SDS011;21906;50.812;7.132;2023-11-19T07:02:04;8.50;;;2.40;;
4106;SDS011;21906;50.812;7.132;2023-11-19T07:04:30;11.40;;;2.63;;
4106;SDS011;21906;50.812;7.132;2023-11-19T07:06:56;8.57;;;2.70;;
4106;SDS011;21906;50.812;7.132;2023-11-19T07:09:22;7.90;;;2.30;;
4106;SDS011;21906;50.812;7.132;2023-11-19T07:11:48;7.80;;;2.43;;
4106;SDS011;21906;50.812;7.132;2023-11-19T07:14:15;9.47;;;3.07;;
4106;SDS011;21906;50.812;7.132;2023-11-19T07:16:41;7.73;;;3.13;;
4106;SDS011;21906;50.812;7.132;2023-11-19T07:19:07;9.30;;;2.40;;
4106;SDS011;21906;50.812;7.132;2023-11-19T07:21:33;8.10;;;2.60;;
4106;SDS011;21906;50.812;7.132;2023-11-19T07:24:00;13.57;;;3.03;;
4106;SDS011;21906;50.812;7.132;2023-11-19T07:26:27;5.17;;;3.10;;
4106;SDS011;21906;50.812;7.132;2023-11-19T07:28:52;7.70;;;2.73;;
4106;SDS011;21906;50.812;7.132;2023-11-19T07:31:18;11.93;;;2.97;;
4106;SDS011;21906;50.812;7.132;2023-11-19T07:33:44;10.83;;;3.17;;
4106;SDS011;21906;50.812;7.132;2023-11-19T07:36:11;9.60;;;2.80;;
4106;SDS011;21906;50.812;7.132;2023-11-19T07:38:37;8.23;;;2.77;;
4106;SDS011;21906;50.812;7.132;2023-11-19T07:41:04;12.13;;;3.50;;
4106;SDS011;21906;50.812;7.132;2023-11-19T07:43:30;8.57;;;2.70;;
4106;SDS011;21906;50.812;7.132;2023-11-19T07:45:56;13.60;;;2.97;;
4106;SDS011;21906;50.812;7.132;2023-11-19T07:48:24;8.27;;;2.83;;
4106;SDS011;21906;50.812;7.132;2023-11-19T07:50:51;8.27;;;2.90;;
4106;SDS011;21906;50.812;7.132;2023-11-19T07:53:17;11.87;;;2.97;;
4106;SDS011;21906;50.812;7.132;2023-11-19T07:55:44;7.50;;;2.73;;
4106;SDS011;21906;50.812;7.132;2023-11-19T07:58:12;8.63;;;3.00;;
4106;SDS011;21906;50.812;7.132;2023-11-19T08:00:38;10.43;;;2.67;;
4106;SDS011;21906;50.812;7.132;2023-11-19T08:03:04;13.30;;;3.70;;
4106;SDS011;21906;50.812;7.132;2023-11-19T08:05:32;10.80;;;3.20;;
4106;SDS011;21906;50.812;7.132;2023-11-19T08:07:58;7.00;;;3.03;;
4106;SDS011;21906;50.812;7.132;2023-11-19T08:10:24;8.80;;;3.10;;
4106;SDS011;21906;50.812;7.132;2023-11-19T08:12:49;8.83;;;2.90;;
4106;SDS011;21906;50.812;7.132;2023-11-19T08:15:15;7.30;;;3.63;;
4106;SDS011;21906;50.812;7.132;2023-11-19T08:17:41;10.20;;;3.00;;
4106;SDS011;21906;50.812;7.132;2023-11-19T08:20:10;11.60;;;2.80;;
4106;SDS011;21906;50.812;7.132;2023-11-19T08:22:36;9.33;;;3.80;;
4106;SDS011;21906;50.812;7.132;2023-11-19T08:25:05;10.53;;;2.70;;
4106;SDS011;21906;50.812;7.132;2023-11-19T08:27:31;10.70;;;3.00;;
4106;SDS011;21906;50.812;7.132;2023-11-19T08:29:57;13.10;;;3.33;;
4106;SDS011;21906;50.812;7.132;2023-11-19T08:32:23;10.63;;;3.33;;
4106;SDS011;21906;50.812;7.132;2023-11-19T08:34:49;11.47;;;3.20;;
4106;SDS011;21906;50.812;7.132;2023-11-19T08:37:15;8.87;;;2.80;;
4106;SDS011;21906;50.812;7.132;2023-11-19T08:39:43;8.10;;;2.50;;
4106;SDS011;21906;50.812;7.132;2023-11-19T08:42:08;12.70;;;3.43;;
4106;SDS011;21906;50.812;7.132;2023-11-19T08:44:34;9.03;;;4.40;;
4106;SDS011;21906;50.812;7.132;2023-11-19T08:47:00;9.50;;;3.00;;
4106;SDS011;21906;50.812;7.132;2023-11-19T08:49:26;16.50;;;3.40;;
4106;SDS011;21906;50.812;7.132;2023-11-19T08:51:51;13.43;;;3.50;;
4106;SDS011;21906;50.812;7.132;2023-11-19T08:54:17;8.50;;;2.50;;
4106;SDS011;21906;50.812;7.132;2023-11-19T08:56:45;12.30;;;3.00;;
4106;SDS011;21906;50.812;7.132;2023-11-19T08:59:10;9.60;;;3.07;;
4106;SDS011;21906;50.812;7.132;2023-11-19T09:01:36;11.70;;;3.10;;
4106;SDS011;21906;50.812;7.132;2023-11-19T09:04:02;13.63;;;3.53;;
4106;SDS011;21906;50.812;7.132;2023-11-19T09:06:28;5.10;;;2.50;;
4106;SDS011;21906;50.812;7.132;2023-11-19T09:08:53;10.27;;;3.10;;
4106;SDS011;21906;50.812;7.132;2023-11-19T09:11:23;20.03;;;3.33;;
4106;SDS011;21906;50.812;7.132;2023-11-19T09:13:49;9.07;;;3.13;;
4106;SDS011;21906;50.812;7.132;2023-11-19T09:16:14;14.13;;;3.13;;
4106;SDS011;21906;50.812;7.132;2023-11-19T09:18:40;13.90;;;4.57;;
4106;SDS011;21906;50.812;7.132;2023-11-19T09:21:06;15.03;;;3.27;;
4106;SDS011;21906;50.812;7.132;2023-11-19T09:23:32;10.13;;;3.47;;
4106;SDS011;21906;50.812;7.132;2023-11-19T09:26:03;10.70;;;2.90;;
4106;SDS011;21906;50.812;7.132;2023-11-19T09:28:30;11.17;;;3.03;;
4106;SDS011;21906;50.812;7.132;2023-11-19T09:30:56;8.27;;;3.17;;
4106;SDS011;21906;50.812;7.132;2023-11-19T09:33:22;18.20;;;3.83;;
4106;SDS011;21906;50.812;7.132;2023-11-19T09:35:47;6.90;;;2.90;;
4106;SDS011;21906;50.812;7.132;2023-11-19T09:38:14;11.43;;;3.00;;
4106;SDS011;21906;50.812;7.132;2023-11-19T09:40:40;9.00;;;3.07;;
4106;SDS011;21906;50.812;7.132;2023-11-19T09:43:07;10.70;;;3.00;;
4106;SDS011;21906;50.812;7.132;2023-11-19T09:45:39;12.37;;;3.40;;
4106;SDS011;21906;50.812;7.132;2023-11-19T09:48:18;13.40;;;3.87;;
4106;SDS011;21906;50.812;7.132;2023-11-19T09:50:47;16.83;;;3.50;;
4106;SDS011;21906;50.812;7.132;2023-11-19T09:53:14;10.70;;;3.10;;
4106;SDS011;21906;50.812;7.132;2023-11-19T09:55:40;10.00;;;3.50;;
4106;SDS011;21906;50.812;7.132;2023-11-19T09:58:07;10.80;;;2.70;;
4106;SDS011;21906;50.812;7.132;2023-11-19T10:00:33;11.10;;;3.47;;
4106;SDS011;21906;50.812;7.132;2023-11-19T10:02:59;13.53;;;3.00;;
4106;SDS011;21906;50.812;7.132;2023-11-19T10:05:26;18.30;;;3.23;;
4106;SDS011;21906;50.812;7.132;2023-11-19T10:07:52;18.93;;;2.90;;
4106;SDS011;21906;50.812;7.132;2023-11-19T10:10:20;8.00;;;2.80;;
4106;SDS011;21906;50.812;7.132;2023-11-19T10:12:46;11.00;;;3.10;;
4106;SDS011;21906;50.812;7.132;2023-11-19T10:15:21;12.97;;;3.33;;
4106;SDS011;21906;50.812;7.132;2023-11-19T10:17:49;11.63;;;3.17;;
4106;SDS011;21906;50.812;7.132;2023-11-19T10:20:15;10.63;;;3.10;;
4106;SDS011;21906;50.812;7.132;2023-11-19T10:22:42;13.30;;;3.20;;
4106;SDS011;21906;50.812;7.132;2023-11-19T10:25:26;16.63;;;3.60;;
4106;SDS011;21906;50.812;7.132;2023-11-19T10:27:53;13.00;;;3.30;;
4106;SDS011;21906;50.812;7.132;2023-11-19T10:30:24;13.60;;;3.70;;
4106;SDS011;21906;50.812;7.132;2023-11-19T10:35:52;9.33;;;2.73;;
4106;SDS011;21906;50.812;7.132;2023-11-19T10:38:19;12.73;;;2.90;;
4106;SDS011;21906;50.812;7.132;2023-11-19T10:40:48;12.53;;;3.23;;
4106;SDS011;21906;50.812;7.132;2023-11-19T10:43:16;11.10;;;3.03;;
4106;SDS011;21906;50.812;7.132;2023-11-19T10:45:42;8.90;;;3.97;;
4106;SDS011;21906;50.812;7.132;2023-11-19T10:48:08;14.57;;;3.30;;
4106;SDS011;21906;50.812;7.132;2023-11-19T10:50:38;9.97;;;3.40;;
4106;SDS011;21906;50.812;7.132;2023-11-19T10:53:06;13.03;;;3.50;;
4106;SDS011;21906;50.812;7.132;2023-11-19T10:55:34;9.83;;;3.80;;
4106;SDS011;21906;50.812;7.132;2023-11-19T11:00:37;8.90;;;3.30;;
4106;SDS011;21906;50.812;7.132;2023-11-19T11:03:10;13.23;;;3.50;;
4106;SDS011;21906;50.812;7.132;2023-11-19T11:05:43;11.20;;;3.67;;
4106;SDS011;21906;50.812;7.132;2023-11-19T11:08:15;15.53;;;3.60;;
4106;SDS011;21906;50.812;7.132;2023-11-19T11:10:45;13.37;;;3.17;;
4106;SDS011;21906;50.812;7.132;2023-11-19T11:13:18;10.60;;;3.10;;
4106;SDS011;21906;50.812;7.132;2023-11-19T11:15:44;8.10;;;2.93;;
4106;SDS011;21906;50.812;7.132;2023-11-19T11:18:12;9.10;;;2.97;;
4106;SDS011;21906;50.812;7.132;2023-11-19T11:20:38;14.20;;;3.67;;
4106;SDS011;21906;50.812;7.132;2023-11-19T11:37:06;7.73;;;2.30;;
4106;SDS011;21906;50.812;7.132;2023-11-19T11:39:42;6.30;;;2.80;;
4106;SDS011;21906;50.812;7.132;2023-11-19T11:45:16;7.03;;;2.40;;
4106;SDS011;21906;50.812;7.132;2023-11-19T11:55:27;7.87;;;2.63;;
4106;SDS011;21906;50.812;7.132;2023-11-19T11:57:59;7.50;;;2.53;;
4106;SDS011;21906;50.812;7.132;2023-11-19T12:02:58;8.80;;;2.80;;
4106;SDS011;21906;50.812;7.132;2023-11-19T12:05:25;9.73;;;2.67;;
4106;SDS011;21906;50.812;7.132;2023-11-19T12:08:02;14.10;;;2.80;;
4106;SDS011;21906;50.812;7.132;2023-11-19T12:10:31;5.43;;;2.50;;
4106;SDS011;21906;50.812;7.132;2023-11-19T12:13:04;6.27;;;2.00;;
4106;SDS011;21906;50.812;7.132;2023-11-19T12:15:32;7.23;;;2.00;;
4106;SDS011;21906;50.812;7.132;2023-11-19T12:17:58;6.17;;;2.20;;
4106;SDS011;21906;50.812;7.132;2023-11-19T12:20:24;7.03;;;2.60;;
4106;SDS011;21906;50.812;7.132;2023-11-19T12:22:52;6.37;;;2.23;;
4106;SDS011;21906;50.812;7.132;2023-11-19T12:25:18;6.30;;;2.43;;
4106;SDS011;21906;50.812;7.132;2023-11-19T12:27:48;7.87;;;2.37;;
4106;SDS011;21906;50.812;7.132;2023-11-19T12:30:24;6.83;;;2.60;;
4106;SDS011;21906;50.812;7.132;2023-11-19T12:32:51;9.47;;;3.37;;
4106;SDS011;21906;50.812;7.132;2023-11-19T12:35:20;7.43;;;2.60;;
4106;SDS011;21906;50.812;7.132;2023-11-19T12:37:47;7.83;;;2.47;;
4106;SDS011;21906;50.812;7.132;2023-11-19T12:40:17;7.53;;;2.37;;
4106;SDS011;21906;50.812;7.132;2023-11-19T12:42:46;9.27;;;2.80;;
4106;SDS011;21906;50.812;7.132;2023-11-19T12:45:15;7.17;;;2.60;;
4106;SDS011;21906;50.812;7.132;2023-11-19T12:47:43;6.20;;;2.73;;
4106;SDS011;21906;50.812;7.132;2023-11-19T12:50:09;6.50;;;2.27;;
4106;SDS011;21906;50.812;7.132;2023-11-19T12:52:36;5.40;;;2.30;;
4106;SDS011;21906;50.812;7.132;2023-11-19T12:55:05;7.77;;;2.20;;
4106;SDS011;21906;50.812;7.132;2023-11-19T12:57:54;9.37;;;2.20;;
4106;SDS011;21906;50.812;7.132;2023-11-19T13:00:21;4.80;;;2.50;;
4106;SDS011;21906;50.812;7.132;2023-11-19T13:02:48;6.90;;;2.27;;
4106;SDS011;21906;50.812;7.132;2023-11-19T13:05:33;6.10;;;2.20;;
4106;SDS011;21906;50.812;7.132;2023-11-19T13:08:02;7.17;;;2.60;;
4106;SDS011;21906;50.812;7.132;2023-11-19T13:10:30;8.50;;;2.97;;
4106;SDS011;21906;50.812;7.132;2023-11-19T13:13:03;8.20;;;2.50;;
4106;SDS011;21906;50.812;7.132;2023-11-19T13:15:31;11.33;;;2.70;;
4106;SDS011;21906;50.812;7.132;2023-11-19T13:17:58;9.03;;;2.73;;
4106;SDS011;21906;50.812;7.132;2023-11-19T13:20:24;8.23;;;2.40;;
4106;SDS011;21906;50.812;7.132;2023-11-19T13:23:00;7.03;;;2.33;;
4106;SDS011;21906;50.812;7.132;2023-11-19T13:25:27;9.37;;;2.00;;
4106;SDS011;21906;50.812;7.132;2023-11-19T13:27:54;7.63;;;2.13;;
4106;SDS011;21906;50.812;7.132;2023-11-19T13:30:21;10.87;;;2.40;;
4106;SDS011;21906;50.812;7.132;2023-11-19T13:32:48;5.50;;;2.30;;
4106;SDS011;21906;50.812;7.132;2023-11-19T13:35:14;9.70;;;2.47;;
4106;SDS011;21906;50.812;7.132;2023-11-19T13:37:40;6.97;;;2.80;;
4106;SDS011;21906;50.812;7.132;2023-11-19T13:40:06;5.17;;;2.20;;
4106;SDS011;21906;50.812;7.132;2023-11-19T13:42:35;10.20;;;3.23;;
4106;SDS011;21906;50.812;7.132;2023-11-19T13:45:02;9.77;;;2.70;;
4106;SDS011;21906;50.812;7.132;2023-11-19T13:47:28;4.33;;;2.33;;
4106;SDS011;21906;50.812;7.132;2023-11-19T13:49:54;5.20;;;3.20;;
4106;SDS011;21906;50.812;7.132;2023-11-19T13:52:20;10.27;;;2.70;;
4106;SDS011;21906;50.812;7.132;2023-11-19T13:54:45;6.60;;;2.40;;
4106;SDS011;21906;50.812;7.132;2023-11-19T13:57:11;6.87;;;2.50;;
4106;SDS011;21906;50.812;7.132;2023-11-19T13:59:40;3.33;;;2.00;;
4106;SDS011;21906;50.812;7.132;2023-11-19T14:02:06;9.23;;;2.60;;
4106;SDS011;21906;50.812;7.132;2023-11-19T14:04:32;5.80;;;2.40;;
4106;SDS011;21906;50.812;7.132;2023-11-19T14:06:58;5.10;;;2.03;;
4106;SDS011;21906;50.812;7.132;2023-11-19T14:09:24;8.20;;;3.10;;
4106;SDS011;21906;50.812;7.132;2023-11-19T14:11:50;6.77;;;2.57;;
4106;SDS011;21906;50.812;7.132;2023-11-19T14:14:16;7.90;;;2.50;;
4106;SDS011;21906;50.812;7.132;2023-11-19T14:16:42;5.97;;;2.33;;
4106;SDS011;21906;50.812;7.132;2023-11-19T14:19:07;6.63;;;2.70;;
4106;SDS011;21906;50.812;7.132;2023-11-19T14:21:33;7.23;;;2.70;;
4106;SDS011;21906;50.812;7.132;2023-11-19T14:23:59;7.93;;;2.80;;
4106;SDS011;21906;50.812;7.132;2023-11-19T14:26:25;8.77;;;2.73;;
4106;SDS011;21906;50.812;7.132;2023-11-19T14:28:50;8.40;;;2.40;;
4106;SDS011;21906;50.812;7.132;2023-11-19T14:31:16;6.00;;;2.50;;
4106;SDS011;21906;50.812;7.132;2023-11-19T14:33:42;7.20;;;3.00;;
4106;SDS011;21906;50.812;7.132;2023-11-19T14:36:07;7.37;;;2.43;;
4106;SDS011;21906;50.812;7.132;2023-11-19T14:38:33;11.30;;;2.77;;
4106;SDS011;21906;50.812;7.132;2023-11-19T14:40:59;8.73;;;2.73;;
4106;SDS011;21906;50.812;7.132;2023-11-19T14:43:25;8.73;;;2.97;;
4106;SDS011;21906;50.812;7.132;2023-11-19T14:45:51;7.53;;;2.27;;
4106;SDS011;21906;50.812;7.132;2023-11-19T14:48:17;9.40;;;2.53;;
4106;SDS011;21906;50.812;7.132;2023-11-19T14:50:43;10.53;;;3.30;;
4106;SDS011;21906;50.812;7.132;2023-11-19T14:53:12;4.10;;;2.07;;
4106;SDS011;21906;50.812;7.132;2023-11-19T14:55:37;5.53;;;1.93;;
4106;SDS011;21906;50.812;7.132;2023-11-19T14:58:04;6.00;;;1.83;;
4106;SDS011;21906;50.812;7.132;2023-11-19T15:00:30;4.13;;;1.97;;
4106;SDS011;21906;50.812;7.132;2023-11-19T15:02:56;6.20;;;1.80;;
4106;SDS011;21906;50.812;7.132;2023-11-19T15:05:22;5.30;;;1.90;;
4106;SDS011;21906;50.812;7.132;2023-11-19T15:07:47;8.43;;;2.10;;
4106;SDS011;21906;50.812;7.132;2023-11-19T15:10:13;5.80;;;2.40;;
4106;SDS011;21906;50.812;7.132;2023-11-19T15:12:39;5.17;;;2.53;;
4106;SDS011;21906;50.812;7.132;2023-11-19T15:15:08;8.20;;;2.10;;
4106;SDS011;21906;50.812;7.132;2023-11-19T15:17:35;10.10;;;2.77;;
4106;SDS011;21906;50.812;7.132;2023-11-19T15:20:02;5.73;;;2.30;;
4106;SDS011;21906;50.812;7.132;2023-11-19T15:22:28;8.07;;;2.80;;
4106;SDS011;21906;50.812;7.132;2023-11-19T15:24:55;7.17;;;2.67;;
4106;SDS011;21906;50.812;7.132;2023-11-19T15:27:21;8.70;;;2.20;;
4106;SDS011;21906;50.812;7.132;2023-11-19T15:29:47;5.07;;;2.23;;
4106;SDS011;21906;50.812;7.132;2023-11-19T15:32:13;5.17;;;2.57;;
4106;SDS011;21906;50.812;7.132;2023-11-19T15:34:39;4.63;;;2.80;;
4106;SDS011;21906;50.812;7.132;2023-11-19T15:37:06;6.40;;;2.10;;